sensor_id;sensor_type;location;lat;lon;timestamp;pressure;altitude;pressure_sealevel;temperature;humidity
35758;BME280;21879;50.110;18.900;2023-02-19T00:02:42;98444.48;;;7.93;74.46
35758;BME280;21879;50.110;18.900;2023-02-19T00:13:08;98453.14;;;7.90;74.27
35758;BME280;21879;50.110;18.900;2023-02-19T00:23:33;98442.75;;;7.91;74.43
35758;BME280;21879;50.110;18.900;2023-02-19T00:34:00;98434.79;;;7.88;74.25
35758;BME280;21879;50.110;18.900;2023-02-19T00:44:25;98438.42;;;7.90;74.35
35758;BME280;21879;50.110;18.900;2023-02-19T00:54:50;98432.21;;;7.85;74.35
35758;BME280;21879;50.110;18.900;2023-02-19T01:05:15;98425.45;;;7.88;74.81
35758;BME280;21879;50.110;18.900;2023-02-19T01:15:39;98414.88;;;7.90;74.52
35758;BME280;21879;50.110;18.900;2023-02-19T01:26:06;98409.02;;;7.85;74.51
35758;BME280;21879;50.110;18.900;2023-02-19T01:36:33;98391.56;;;7.79;74.65
35758;BME280;21879;50.110;18.900;2023-02-19T01:46:57;98382.52;;;7.91;74.53
35758;BME280;21879;50.110;18.900;2023-02-19T01:57:25;98372.94;;;8.00;74.36
35758;BME280;21879;50.110;18.900;2023-02-19T02:07:51;98365.33;;;8.02;74.28
35758;BME280;21879;50.110;18.900;2023-02-19T02:18:43;98348.83;;;8.09;74.40
35758;BME280;21879;50.110;18.900;2023-02-19T02:29:24;98340.37;;;8.06;74.33
35758;BME280;21879;50.110;18.900;2023-02-19T02:39:57;98333.35;;;7.91;74.27
35758;BME280;21879;50.110;18.900;2023-02-19T02:50:25;98325.59;;;7.84;74.28
35758;BME280;21879;50.110;18.900;2023-02-19T03:00:55;98313.23;;;7.96;74.41
35758;BME280;21879;50.110;18.900;2023-02-19T03:11:41;98293.97;;;8.06;73.91
35758;BME280;21879;50.110;18.900;2023-02-19T03:22:28;98282.62;;;8.19;74.01
35758;BME280;21879;50.110;18.900;2023-02-19T03:32:56;98285.82;;;8.34;74.04
35758;BME280;21879;50.110;18.900;2023-02-19T03:43:25;98295.34;;;8.60;73.86
35758;BME280;21879;50.110;18.900;2023-02-19T03:54:05;98285.15;;;8.57;73.27
35758;BME280;21879;50.110;18.900;2023-02-19T04:04:36;98280.45;;;8.34;73.13
35758;BME280;21879;50.110;18.900;2023-02-19T04:15:07;98271.27;;;8.34;73.48
35758;BME280;21879;50.110;18.900;2023-02-19T04:25:34;98263.80;;;8.37;73.44
35758;BME280;21879;50.110;18.900;2023-02-19T04:36:00;98255.12;;;8.40;73.32
35758;BME280;21879;50.110;18.900;2023-02-19T04:46:24;98250.12;;;8.35;73.50
35758;BME280;21879;50.110;18.900;2023-02-19T04:56:49;98241.39;;;8.48;73.78
35758;BME280;21879;50.110;18.900;2023-02-19T05:07:13;98213.63;;;8.52;73.55
35758;BME280;21879;50.110;18.900;2023-02-19T05:17:37;98187.14;;;8.50;73.29
35758;BME280;21879;50.110;18.900;2023-02-19T05:28:02;98166.48;;;8.35;73.16
35758;BME280;21879;50.110;18.900;2023-02-19T05:38:40;98172.79;;;8.04;73.16
35758;BME280;21879;50.110;18.900;2023-02-19T05:49:04;98160.22;;;7.71;73.97
35758;BME280;21879;50.110;18.900;2023-02-19T05:59:29;98162.70;;;7.61;74.69
35758;BME280;21879;50.110;18.900;2023-02-19T06:09:54;98162.23;;;7.79;75.18
35758;BME280;21879;50.110;18.900;2023-02-19T06:20:18;98162.05;;;8.04;75.22
35758;BME280;21879;50.110;18.900;2023-02-19T06:30:43;98180.67;;;8.35;74.83
35758;BME280;21879;50.110;18.900;2023-02-19T06:41:08;98184.78;;;8.43;74.32
35758;BME280;21879;50.110;18.900;2023-02-19T06:51:33;98182.89;;;8.40;73.91
35758;BME280;21879;50.110;18.900;2023-02-19T07:01:57;98182.61;;;8.29;73.86
35758;BME280;21879;50.110;18.900;2023-02-19T07:12:22;98176.08;;;8.24;74.28
35758;BME280;21879;50.110;18.900;2023-02-19T07:22:47;98172.74;;;8.29;74.52
35758;BME280;21879;50.110;18.900;2023-02-19T07:33:12;98152.74;;;8.40;75.05
35758;BME280;21879;50.110;18.900;2023-02-19T07:43:38;98145.55;;;8.50;75.15
35758;BME280;21879;50.110;18.900;2023-02-19T07:54:03;98135.73;;;8.45;74.99
35758;BME280;21879;50.110;18.900;2023-02-19T08:04:28;98133.06;;;8.31;75.27
35758;BME280;21879;50.110;18.900;2023-02-19T08:14:53;98118.95;;;8.20;75.73
35758;BME280;21879;50.110;18.900;2023-02-19T08:25:18;98118.21;;;8.25;75.96
35758;BME280;21879;50.110;18.900;2023-02-19T08:35:43;98122.81;;;8.36;76.42
35758;BME280;21879;50.110;18.900;2023-02-19T08:46:09;98128.85;;;8.36;76.24
35758;BME280;21879;50.110;18.900;2023-02-19T08:56:34;98138.26;;;8.31;76.20
35758;BME280;21879;50.110;18.900;2023-02-19T09:06:59;98140.00;;;8.30;76.19
35758;BME280;21879;50.110;18.900;2023-02-19T09:17:24;98144.91;;;8.22;76.31
35758;BME280;21879;50.110;18.900;2023-02-19T09:27:49;98153.64;;;8.16;76.29
35758;BME280;21879;50.110;18.900;2023-02-19T09:38:13;98158.40;;;8.05;75.97
35758;BME280;21879;50.110;18.900;2023-02-19T09:48:39;98167.55;;;7.86;75.60
35758;BME280;21879;50.110;18.900;2023-02-19T09:59:04;98181.97;;;7.78;75.75
35758;BME280;21879;50.110;18.900;2023-02-19T10:09:30;98188.73;;;7.75;75.97
35758;BME280;21879;50.110;18.900;2023-02-19T10:19:55;98200.49;;;7.76;75.40
35758;BME280;21879;50.110;18.900;2023-02-19T10:30:24;98212.31;;;7.69;74.68
35758;BME280;21879;50.110;18.900;2023-02-19T10:40:55;98230.73;;;7.55;74.38
35758;BME280;21879;50.110;18.900;2023-02-19T10:51:26;98239.04;;;7.53;74.38
35758;BME280;21879;50.110;18.900;2023-02-19T11:01:55;98257.73;;;7.50;73.76
35758;BME280;21879;50.110;18.900;2023-02-19T11:12:24;98286.85;;;7.35;73.16
35758;BME280;21879;50.110;18.900;2023-02-19T11:22:50;98293.24;;;7.34;73.21
35758;BME280;21879;50.110;18.900;2023-02-19T11:33:24;98303.09;;;7.41;73.14
35758;BME280;21879;50.110;18.900;2023-02-19T11:44:00;98334.91;;;7.42;72.81
35758;BME280;21879;50.110;18.900;2023-02-19T11:54:38;98362.60;;;7.37;72.14
35758;BME280;21879;50.110;18.900;2023-02-19T12:05:17;98378.70;;;7.25;71.53
35758;BME280;21879;50.110;18.900;2023-02-19T12:15:54;98390.30;;;7.20;71.32
35758;BME280;21879;50.110;18.900;2023-02-19T12:26:27;98407.08;;;7.09;71.29
35758;BME280;21879;50.110;18.900;2023-02-19T12:37:03;98418.32;;;6.95;70.92
35758;BME280;21879;50.110;18.900;2023-02-19T12:47:31;98432.29;;;6.72;70.67
35758;BME280;21879;50.110;18.900;2023-02-19T12:58:00;98450.91;;;6.51;70.56
35758;BME280;21879;50.110;18.900;2023-02-19T13:08:31;98460.52;;;6.32;70.07
35758;BME280;21879;50.110;18.900;2023-02-19T13:19:02;98478.08;;;6.19;69.81
35758;BME280;21879;50.110;18.900;2023-02-19T13:29:36;98496.29;;;6.02;69.40
35758;BME280;21879;50.110;18.900;2023-02-19T13:40:16;98523.58;;;5.82;68.51
35758;BME280;21879;50.110;18.900;2023-02-19T13:50:42;98544.04;;;5.72;68.23
35758;BME280;21879;50.110;18.900;2023-02-19T14:01:07;98559.05;;;5.74;67.83
35758;BME280;21879;50.110;18.900;2023-02-19T14:12:04;98579.27;;;5.79;67.79
35758;BME280;21879;50.110;18.900;2023-02-19T14:33:29;98629.67;;;5.62;68.26
35758;BME280;21879;50.110;18.900;2023-02-19T14:43:56;98636.34;;;5.37;67.70
35758;BME280;21879;50.110;18.900;2023-02-19T14:54:32;98639.06;;;5.33;67.87
35758;BME280;21879;50.110;18.900;2023-02-19T15:04:58;98643.95;;;5.39;67.63
35758;BME280;21879;50.110;18.900;2023-02-19T15:15:26;98665.00;;;5.39;67.25
35758;BME280;21879;50.110;18.900;2023-02-19T15:25:52;98671.32;;;5.34;67.04
35758;BME280;21879;50.110;18.900;2023-02-19T15:36:24;98680.11;;;5.34;66.90
35758;BME280;21879;50.110;18.900;2023-02-19T15:46:50;98693.83;;;5.44;66.81
35758;BME280;21879;50.110;18.900;2023-02-19T15:57:18;98725.91;;;5.31;66.20
35758;BME280;21879;50.110;18.900;2023-02-19T16:07:44;98752.63;;;5.30;66.29
35758;BME280;21879;50.110;18.900;2023-02-19T16:18:13;98766.30;;;5.21;66.06
35758;BME280;21879;50.110;18.900;2023-02-19T16:28:39;98789.18;;;5.16;65.67
35758;BME280;21879;50.110;18.900;2023-02-19T16:39:16;98815.41;;;5.19;65.11
35758;BME280;21879;50.110;18.900;2023-02-19T16:49:42;98843.12;;;5.16;64.52
35758;BME280;21879;50.110;18.900;2023-02-19T17:00:08;98876.30;;;4.98;63.72
35758;BME280;21879;50.110;18.900;2023-02-19T17:10:32;98897.46;;;4.85;63.74
35758;BME280;21879;50.110;18.900;2023-02-19T17:21:00;98913.64;;;4.84;63.50
35758;BME280;21879;50.110;18.900;2023-02-19T17:31:24;98921.03;;;4.83;63.31
35758;BME280;21879;50.110;18.900;2023-02-19T17:41:48;98930.01;;;4.84;63.65
35758;BME280;21879;50.110;18.900;2023-02-19T17:52:13;98955.52;;;4.96;63.66
35758;BME280;21879;50.110;18.900;2023-02-19T18:02:40;98975.33;;;4.95;63.74
35758;BME280;21879;50.110;18.900;2023-02-19T18:13:04;98988.40;;;5.04;63.83
35758;BME280;21879;50.110;18.900;2023-02-19T18:23:28;99009.58;;;4.92;63.59
35758;BME280;21879;50.110;18.900;2023-02-19T18:33:53;99026.86;;;4.96;63.94
35758;BME280;21879;50.110;18.900;2023-02-19T18:44:18;99035.31;;;5.06;63.83
35758;BME280;21879;50.110;18.900;2023-02-19T18:54:43;99037.27;;;5.09;63.77
35758;BME280;21879;50.110;18.900;2023-02-19T19:05:07;99048.81;;;5.19;63.47
35758;BME280;21879;50.110;18.900;2023-02-19T19:15:40;99062.89;;;5.25;63.19
35758;BME280;21879;50.110;18.900;2023-02-19T19:26:05;99073.88;;;5.32;63.15
35758;BME280;21879;50.110;18.900;2023-02-19T19:36:29;99079.43;;;5.25;62.63
35758;BME280;21879;50.110;18.900;2023-02-19T19:46:54;99093.48;;;5.10;62.58
35758;BME280;21879;50.110;18.900;2023-02-19T19:57:18;99105.55;;;4.93;62.46
35758;BME280;21879;50.110;18.900;2023-02-19T20:07:43;99101.80;;;4.86;62.53
35758;BME280;21879;50.110;18.900;2023-02-19T20:18:07;99098.23;;;4.80;62.65
35758;BME280;21879;50.110;18.900;2023-02-19T20:28:32;99106.13;;;4.70;62.53
35758;BME280;21879;50.110;18.900;2023-02-19T20:38:56;99116.23;;;4.75;62.76
35758;BME280;21879;50.110;18.900;2023-02-19T20:49:22;99134.42;;;4.71;62.72
35758;BME280;21879;50.110;18.900;2023-02-19T20:59:47;99146.55;;;4.59;62.66
35758;BME280;21879;50.110;18.900;2023-02-19T21:10:11;99154.10;;;4.66;62.82
35758;BME280;21879;50.110;18.900;2023-02-19T21:20:36;99175.05;;;4.47;62.44
35758;BME280;21879;50.110;18.900;2023-02-19T21:31:01;99190.47;;;4.36;62.79
35758;BME280;21879;50.110;18.900;2023-02-19T21:41:25;99205.05;;;4.33;62.73
35758;BME280;21879;50.110;18.900;2023-02-19T21:51:49;99215.41;;;4.35;63.05
35758;BME280;21879;50.110;18.900;2023-02-19T22:02:14;99216.91;;;4.40;62.96
35758;BME280;21879;50.110;18.900;2023-02-19T22:12:42;99223.35;;;4.35;62.87
35758;BME280;21879;50.110;18.900;2023-02-19T22:23:07;99233.66;;;4.28;62.96
35758;BME280;21879;50.110;18.900;2023-02-19T22:33:32;99239.06;;;4.30;63.23
35758;BME280;21879;50.110;18.900;2023-02-19T22:43:57;99250.31;;;4.40;63.40
35758;BME280;21879;50.110;18.900;2023-02-19T22:54:22;99255.59;;;4.52;63.19
35758;BME280;21879;50.110;18.900;2023-02-19T23:04:50;99259.96;;;4.48;63.07
35758;BME280;21879;50.110;18.900;2023-02-19T23:15:14;99277.04;;;4.35;62.84
35758;BME280;21879;50.110;18.900;2023-02-19T23:25:38;99293.78;;;4.36;62.79
35758;BME280;21879;50.110;18.900;2023-02-19T23:36:03;99290.60;;;4.47;62.76
35758;BME280;21879;50.110;18.900;2023-02-19T23:46:27;99296.84;;;4.63;62.41
35758;BME280;21879;50.110;18.900;2023-02-19T23:56:52;99284.61;;;4.71;62.14
